EST,Max TemperatureF,Mean TemperatureF,Min TemperatureF,Max Dew PointF,MeanDew PointF,Min DewpointF,Max Humidity, Mean Humidity, Min Humidity, Max Sea Level PressureIn, Mean Sea Level PressureIn, Min Sea Level PressureIn, Max VisibilityMiles, Mean VisibilityMiles, Min VisibilityMiles, Max Wind SpeedMPH, Mean Wind SpeedMPH, Max Gust SpeedMPH,PrecipitationIn, CloudCover, Events, WindDirDegrees
2013-1-1,69,60,50,55,51,45,87,74,56,30.19,30.07,29.95,10,8,5,12,5,,0.00,6,,218
2013-1-2,64,58,51,59,53,48,94,84,73,30.15,30.01,29.89,10,8,2,10,7,,0.01,8,Rain,20
2013-1-3,51,48,46,48,47,41,94,90,81,30.28,30.17,30.10,10,7,2,8,4,,0.12,8,Rain,50
2013-1-4,53,44,35,43,38,28,100,82,38,30.35,30.30,30.26,10,5,0,7,2,,0.00,2,Fog-Snow,11
2013-1-5,55,44,32,41,33,25,100,70,35,30.42,30.34,30.30,10,8,3,8,1,,0.00,0,,32
2013-1-6,55,50,44,45,44,41,93,80,58,30.29,30.19,30.11,10,8,4,5,0,,0.01,7,Rain,216
2013-1-7,57,49,41,43,36,32,87,65,38,30.40,30.33,30.18,10,9,7,12,4,18,0.00,0,,35
2013-1-8,66,55,44,52,43,36,94,71,52,30.40,30.35,30.32,10,8,5,10,4,,0.00,2,,22
2013-1-9,73,62,50,57,54,48,94,81,57,30.40,30.36,30.32,10,8,2,6,2,,0.00,4,,356
2013-1-10,73,63,53,59,55,52,100,84,50,30.45,30.40,30.37,10,5,0,10,3,17,0.08,7,Fog-Rain,76
2013-1-11,78,66,55,64,58,52,100,86,57,30.36,30.25,30.18,10,4,0,12,2,17,0.00,5,Fog,191
2013-1-12,80,70,59,64,61,57,100,81,48,30.21,30.16,30.12,10,6,0,6,2,,0.01,3,Fog,219
2013-1-13,77,65,53,66,58,52,100,81,54,30.18,30.13,30.08,10,6,0,10,2,,0.00,2,Fog,206
2013-1-14,80,70,59,64,60,57,100,79,51,30.20,30.15,30.11,10,6,0,16,4,20,0.00,1,Fog,201
2013-1-15,80,68,55,64,60,55,100,79,47,30.17,30.11,30.05,10,7,0,12,3,20,0.00,2,Fog,194
2013-1-16,80,71,62,64,61,59,94,76,48,30.06,30.01,29.95,10,9,3,18,7,25,0.00,2,,203
2013-1-17,80,64,48,61,56,37,94,76,45,30.03,29.91,29.74,10,8,1,18,7,30,0.15,2,Rain,224
2013-1-18,55,48,39,41,31,23,87,57,29,30.51,30.39,30.07,10,9,5,15,10,28,0.00,2,,18
2013-1-19,62,50,37,43,35,28,93,64,38,30.49,30.36,30.24,10,8,5,7,4,,0.00,1,,32
2013-1-20,69,56,42,45,37,25,93,63,18,30.23,30.13,30.05,10,8,4,9,2,,0.00,0,,262
2013-1-21,68,52,35,41,35,28,93,59,23,30.10,30.04,29.96,10,8,4,12,2,16,0.00,0,,246
2013-1-22,55,44,33,34,27,21,87,51,30,30.27,30.17,30.05,10,8,5,10,2,,0.00,0,,324
2013-1-23,53,42,32,34,24,12,81,55,25,30.39,30.29,30.18,10,8,5,7,1,,0.00,0,,19
2013-1-24,64,48,33,45,32,12,76,52,34,30.49,30.21,30.09,10,8,5,17,9,25,0.00,0,,303
2013-1-25,44,36,28,30,21,7,65,52,37,30.49,30.32,30.16,10,8,5,9,5,,0.00,4,,29
2013-1-26,59,47,35,37,33,28,87,66,36,30.33,30.20,30.12,10,8,5,8,1,,0.00,2,,17
2013-1-27,55,44,33,36,32,25,81,65,44,30.53,30.46,30.34,10,8,5,12,6,,0.00,1,,67
2013-1-28,60,50,41,46,40,34,93,75,59,30.48,30.38,30.29,10,7,5,8,3,,0.00,4,,32
2013-1-29,78,61,44,63,54,43,100,81,51,30.29,30.21,30.12,10,5,0,14,3,18,0.00,2,Fog-Rain,199
2013-1-30,77,70,62,66,63,59,94,78,57,30.11,29.89,29.62,10,7,3,28,10,41,0.12,4,Rain,197
2013-1-31,57,49,41,54,32,21,94,54,25,30.18,29.97,29.73,10,9,4,14,6,28,0.25,1,Rain,266